Aripeka, FL

8:41 PM EDT on October 22, 2014 (GMT -0400)
Hernando Beach South | Change Station
CLOSE
Current Station
Personal Weather Station
Location: Hernando Beach, FL
Elevation: 26 ft
Nearby Weather Stations

Elev 26 ft 28.47 °N, 82.65 °W | Updated 6 minutes ago

Partly Cloudy
Partly Cloudy
73.4 °F
Feels Like 75 °F
N
0.0
Wind Variable Wind from NNW
Gusts 0.0 mph

Today
High -- | Low -- °F
--% Chance of Precip.
Yesterday
High -- | Low -- °F
Precip. -- in
7:35 AM 6:54 PM
Waning Crescent, 1% visible
Pressure 29.97 in
Visibility 10.0 miles
Clouds Clear
Heat Index 75 °F
Dew Point 63 °F
Humidity 70%
Rainfall 0.00 in
Snow Depth Not available.
UV 0.0 out of 12
Pollen 6.70 out of 12
Air Quality Not available.
Flu Activity Local Activity
METAR KBKV 222353Z AUTO 02005KT 10SM CLR 21/15 A2997 RMK AO2 SLP148 T02110150 10294 20211 53013

More Conditions Fewer Conditions

Pressure 29.97 in
Visibility 10.0 miles
Clouds Clear
Heat Index 75 °F
Dew Point 63 °F
Humidity 70%
Rainfall 0.00 in
Snow Depth Not available.
UV 0.0 out of 12
Pollen 6.70 out of 12
Air Quality Not available.
Flu Activity Local Activity
METAR KBKV 222353Z AUTO 02005KT 10SM CLR 21/15 A2997 RMK AO2 SLP148 T02110150 10294 20211 53013

More Conditions Fewer Conditions

10-Day Weather Forecast

Almanac

Astronomy

Oct. 22, 2014 Rise Set
Actual Time 7:35 AM EDT 6:54 PM EDT
Civil Twilight 7:11 AM EDT 7:18 PM EDT
Nautical Twilight 6:44 AM EDT 7:45 PM EDT
Astronomical Twilight 6:16 AM EDT 8:12 PM EDT
Moon 6:22 AM EDT (10/22) 6:15 PM EDT (10/22)
Length of Visible Light 12h 06m
Length of Day
11h 18m
Tomorrow will be 1m 35s shorter.
Waning Crescent, 1% of the Moon is Illuminated
Today
Waning Crescent
Oct 23
New
Oct 30
First Quarter
Nov 6
Full
Nov 14
Last Quarter

Today's Extremes

State Highs State Lows

Community

WunderPhotos

Upload Photos

1,764,098 photos uploaded!

WunderBlogs® & News

Nearby

Snow Depth

Station Depth Elevation
No new snow has been reported.

Earthquake Activity

City Distance Mag. Time & Date
No recent earthquake activity has been reported nearby.
Minimum magnitude displayed is 2.5.

Coastal Water Temperatures

Place Temperature
No Stations Reporting

Nearby Weather Stations